x

Buoy E01 - Central Maine Shelf (44032) Wave Buoy

10:04 - Thu 2nd Oct 2014 All times are EDT. -4 hours from GMT.

  • Sig Wave height 5.2ft
  • Peak Period 8s
  • Wind
    22mph, 25mph gusts
  • Sea Temp 54°f
  • Luft Temp 52°f
  • Sea Pressure 1021.6mb
  • Buoy E01 - Central Maine Shelf
  • Buoy E01 - Central Maine Shelf

More Historic Weather Station data

Upgrade to MSW Pro to gain access to the past 30 days of data for over 8000 Wavebouys and Weather Stations around the globe.

Join Pro

Comparision Forecast

View Surf forecast
   
Do 10/02 10:04 5ft 8s 22 25 mph 1021.6mb 54f 52f
9:04 6ft 8s 20 25 mph 1021.8mb 54f 53f
8:04 5ft 8s 18 22 mph 1021.4mb 54f 53f
7:04 5ft 8s 18 20 mph 1021.2mb 54f 53f
6:04 4.5ft 8s 20 22 mph 1020.6mb 54f 53f
5:04 5ft 6s 18 25 mph 1020.7mb 55f 54f
4:04 4.5ft 6s 20 22 mph 1020mb 55f 55f
3:04 4.5ft 8s 18 22 mph 1019.5mb 55f 55f
2:04 5ft 6s 16 18 mph 1020.1mb 55f 56f
1:04 4ft 6s 13 16 mph 1020.4mb 55f 56f
12:04 4ft 6s 16 18 mph 1020.2mb 55f 56f
Mi 10/01 11:04 3.5ft 6s 13 18 mph 1020.7mb 55f 56f
10:04 3.5ft 6s 18 20 mph 1020.3mb 55f 57f
9:04 3.5ft 6s 13 16 mph 1020mb 55f 56f
3:04 4ft 5s 11
mph
1018.6mb 55f 56f
2:04 3.5ft 6s 9 11 mph 1018.6mb 55f 56f
1:04 3.5ft 5s 16 18 mph 1018.3mb 55f 56f
12:04 3ft 5s 16 18 mph 1019mb 55f 56f
11:04 2.5ft 4s 16 20 mph 1019.5mb 55f 56f
10:04 2.5ft 5s 18 22 mph 1019.1mb 55f 56f
9:04 2.5ft 5s 18 20 mph 1018.8mb 55f 55f
8:04 2ft 5s 16 20 mph 1018.2mb 55f 55f
7:04 2.5ft 5s 18 20 mph 1017.7mb 55f 56f
6:04 2.5ft 5s 16 18 mph 1016.9mb 55f 56f
5:04 2.5ft 5s 13 18 mph 1016.5mb 56f 56f
4:04 2.5ft 5s 13 16 mph 1016.4mb 56f 56f
3:04 2.5ft 5s 11 13 mph 1016.6mb 56f 56f
2:04 2ft 5s 13 16 mph 1017mb 56f 56f
1:04 2.5ft 6s 9 11 mph 1017.3mb 56f 56f
12:04 2ft 6s 9
mph
1017.1mb 56f 56f
Di 09/30 11:04 2ft 8s 7 9 mph 1017.2mb 56f 56f
10:04 2ft 8s 11 13 mph 1016.9mb 56f 56f
9:04 2ft 8s 11
mph
1016.9mb 56f 55f
8:04 2ft 5s 11 13 mph 1016.7mb 56f 55f
6:04 2.5ft 5s 13 16 mph 1016.1mb 56f 55f
5:04 2.5ft 5s 13
mph
1015.7mb 56f 55f
4:04 2.5ft 6s 16 18 mph 1015.7mb 56f 55f
3:04 2.5ft 5s 13
mph
1015.9mb 56f 55f
2:04 3ft 5s 13 16 mph 1015.9mb 56f 54f
1:04 3.5ft 6s 16 18 mph 1016.5mb 56f 53f
12:04 3.5ft 6s 16 18 mph 1016.6mb 56f 53f
11:04 3.5ft 6s 16 18 mph 1017mb 56f 53f
10:04 3.5ft 6s 20 22 mph 1016.7mb 56f 53f
9:04 3.5ft 6s 16 18 mph 1017.3mb 56f 53f
8:04 4.5ft 6s 20 25 mph 1016.3mb 56f 53f
7:04 3.5ft 6s 20 25 mph 1016mb 56f 53f
6:04 4.5ft 5s 18 22 mph 1016.1mb 56f 53f
5:04 4.5ft 4s 20 25 mph 1015.5mb 56f 53f
4:04 4.5ft 6s 22 27 mph 1015.5mb 56f 53f
3:04 4.5ft 5s 20 25 mph 1015.7mb 56f 53f
2:04 5ft 5s 20 25 mph 1016mb 56f 54f
1:04 5.5ft 6s 25 29 mph 1015.7mb 56f 54f
12:04 6ft 5s 25 29 mph 1016mb 56f 54f
Mo 09/29 11:04 6.5ft 5s 25 29 mph 1016.6mb 56f 54f
10:04 6ft 6s 27 34 mph 1016.6mb 56f 54f
9:04 7ft 5s 27 31 mph 1016.8mb 56f 54f
8:04 7.5ft 6s 27 34 mph 1016.8mb 57f 54f
7:04 7.5ft 6s 29 38 mph 1016.5mb 57f 55f
6:04 7.5ft 5s 27 34 mph 1016.3mb 57f 56f
5:04 7ft 6s 27 34 mph 1015.8mb 57f 56f
4:04 6ft 5s 29 38 mph 1015.4mb 56f 57f
3:04 6ft 5s 29 36 mph 1015.9mb 56f 57f
2:04 5.5ft 5s 27 36 mph 1015.2mb 56f 57f
1:04 4.5ft 4s 29 36 mph 1015.2mb 57f 56f
12:04 1.6ft 3s 25 31 mph 1015.4mb 59f 59f
11:04 2ft 8s 13 16 mph 1015.1mb 59f 62f
10:04 2ft 8s 4 7 mph 1014.5mb 59f 61f
9:04 2ft 5s 9 11 mph 1014.3mb 59f 60f
8:04 2ft 5s 7 9 mph 1013.9mb 58f 60f
7:04 1.6ft 5s 7
mph
1013.5mb 59f 59f
6:04 2.5ft 5s 4 7 mph 1013mb 59f 59f
5:04 2ft 5s 2
mph
1013mb 59f 59f
4:04 2.5ft 5s 2 4 mph 1012.7mb 59f 59f
3:04 2.5ft 4s 4
mph
1012.4mb 59f 60f
2:04 2.5ft 5s 2
mph
1012.5mb 59f 60f
1:04 2.5ft 4s 2 4 mph 1012.8mb 59f 60f
12:04 2ft 8s 4
mph
1013mb 59f 61f
So 09/28 11:04 2ft 8s 7
mph
1013.3mb 59f 61f
10:04 2ft 8s 7
mph
1013.6mb 60f 61f
9:04 2ft 8s 4 7 mph 1014.2mb 59f 61f
8:04 1.3ft 3s 7 9 mph 1014.3mb 59f 62f
7:04 1.6ft 8s 11
mph
1014.3mb 60f 62f
6:04 1.6ft 6s 11 13 mph 1014.3mb 60f 62f
5:04 1.6ft 8s 11 13 mph 1014.4mb 60f 62f
4:04 1.3ft 6s 11 13 mph 1014.7mb 60f 61f